createdAt,value
2022-11-25T00:01:33.007Z,8.50
2022-11-25T00:04:01.841Z,8.90
2022-11-25T00:06:36.094Z,8.35
2022-11-25T00:09:13.010Z,7.97
2022-11-25T00:11:44.076Z,7.60
2022-11-25T00:14:14.966Z,7.88
2022-11-25T00:16:48.097Z,8.48
2022-11-25T00:19:17.364Z,7.70
2022-11-25T00:21:47.201Z,7.90
2022-11-25T00:24:16.867Z,7.78
2022-11-25T00:26:44.801Z,7.72
2022-11-25T00:29:14.629Z,7.55
2022-11-25T00:31:42.994Z,7.57
2022-11-25T00:34:14.675Z,7.75
2022-11-25T00:36:43.618Z,6.03
2022-11-25T00:39:18.639Z,6.88
2022-11-25T00:42:05.303Z,7.57
2022-11-25T00:44:37.228Z,7.28
2022-11-25T00:47:12.039Z,7.38
2022-11-25T00:49:43.466Z,7.68
2022-11-25T00:52:15.783Z,6.93
2022-11-25T00:54:47.718Z,7.20
2022-11-25T00:57:21.208Z,7.80
2022-11-25T00:59:49.581Z,7.03
2022-11-25T01:02:19.211Z,7.28
2022-11-25T01:04:47.763Z,8.10
2022-11-25T01:07:18.128Z,6.85
2022-11-25T01:09:47.526Z,8.00
2022-11-25T01:12:15.753Z,7.28
2022-11-25T01:14:43.574Z,6.75
2022-11-25T01:17:11.536Z,6.50
2022-11-25T01:19:40.799Z,5.78
2022-11-25T01:22:10.341Z,5.80
2022-11-25T01:24:38.632Z,5.57
2022-11-25T01:27:06.768Z,6.03
2022-11-25T01:29:34.706Z,5.50
2022-11-25T01:32:03.666Z,5.55
2022-11-25T01:34:34.534Z,5.70
2022-11-25T01:37:02.970Z,5.00
2022-11-25T01:39:33.079Z,5.05
2022-11-25T01:42:02.315Z,4.95
2022-11-25T01:44:32.997Z,5.28
2022-11-25T01:47:23.393Z,4.43
2022-11-25T01:50:05.162Z,5.05
2022-11-25T01:52:38.201Z,4.90
2022-11-25T01:55:15.713Z,5.28
2022-11-25T01:58:12.692Z,5.15
2022-11-25T02:00:42.195Z,5.05
2022-11-25T02:03:10.535Z,4.97
2022-11-25T02:05:54.223Z,5.13
2022-11-25T02:08:24.466Z,5.20
2022-11-25T02:10:55.331Z,4.88
2022-11-25T02:13:24.639Z,5.47
2022-11-25T02:15:52.822Z,4.82
2022-11-25T02:18:20.754Z,4.93
2022-11-25T02:20:48.679Z,4.95
2022-11-25T02:23:35.893Z,4.90
2022-11-25T02:26:05.888Z,4.55
2022-11-25T02:28:34.997Z,4.93
2022-11-25T02:31:06.814Z,4.95
2022-11-25T02:33:36.895Z,5.35
2022-11-25T02:36:17.377Z,4.45
2022-11-25T02:38:59.082Z,4.95
2022-11-25T02:41:46.485Z,4.63
2022-11-25T02:44:14.357Z,4.43
2022-11-25T02:46:42.434Z,4.60
2022-11-25T02:49:10.706Z,4.70
2022-11-25T02:51:43.976Z,4.75
2022-11-25T02:54:14.819Z,5.13
2022-11-25T02:56:43.297Z,4.57
2022-11-25T02:59:11.793Z,3.97
2022-11-25T03:01:40.796Z,4.28
2022-11-25T03:04:11.086Z,4.22
2022-11-25T03:06:39.998Z,4.03
2022-11-25T03:09:08.584Z,4.53
2022-11-25T03:11:58.486Z,4.13
2022-11-25T03:14:26.482Z,4.45
2022-11-25T03:16:54.155Z,4.20
2022-11-25T03:19:22.416Z,4.40
2022-11-25T03:21:53.510Z,4.07
2022-11-25T03:24:21.404Z,4.30
2022-11-25T03:26:50.857Z,4.28
2022-11-25T03:29:19.331Z,4.88
2022-11-25T03:31:47.527Z,4.07
2022-11-25T03:34:15.582Z,4.18
2022-11-25T03:36:43.721Z,4.47
2022-11-25T03:39:11.669Z,4.43
2022-11-25T03:41:39.944Z,4.15
2022-11-25T03:44:07.846Z,3.70
2022-11-25T03:46:37.005Z,4.18
2022-11-25T03:49:07.872Z,4.90
2022-11-25T03:51:36.169Z,5.20
2022-11-25T03:54:04.596Z,4.70
2022-11-25T03:56:46.052Z,4.38
2022-11-25T03:59:14.166Z,5.45
2022-11-25T04:01:44.298Z,7.03
2022-11-25T04:04:12.619Z,6.07
2022-11-25T04:06:41.288Z,5.78
2022-11-25T04:09:11.996Z,6.03
2022-11-25T04:11:59.155Z,6.95
2022-11-25T04:14:31.468Z,6.78
2022-11-25T04:16:59.471Z,5.20
2022-11-25T04:19:27.645Z,5.28
2022-11-25T04:21:59.854Z,4.82
2022-11-25T04:24:29.626Z,4.20
2022-11-25T04:26:57.914Z,3.72
2022-11-25T04:29:26.929Z,4.65
2022-11-25T04:31:55.819Z,5.43
2022-11-25T04:34:24.577Z,4.57
2022-11-25T04:36:54.143Z,4.40
2022-11-25T04:39:22.189Z,4.35
2022-11-25T04:42:12.733Z,4.40
2022-11-25T04:44:51.958Z,3.70
2022-11-25T04:47:30.147Z,3.97
2022-11-25T04:49:59.656Z,4.03
2022-11-25T04:52:27.911Z,3.83
2022-11-25T04:54:56.097Z,3.58
2022-11-25T04:57:24.409Z,3.83
2022-11-25T04:59:52.341Z,3.38
2022-11-25T05:02:27.021Z,3.60
2022-11-25T05:05:15.558Z,2.90
2022-11-25T05:07:44.705Z,3.10
2022-11-25T05:10:14.093Z,3.00
2022-11-25T05:12:45.932Z,3.65
2022-11-25T05:15:17.729Z,4.05
2022-11-25T05:17:48.159Z,3.58
2022-11-25T05:20:20.114Z,3.30
2022-11-25T05:22:48.976Z,2.83
2022-11-25T05:25:21.207Z,2.97
2022-11-25T05:28:06.618Z,2.97
2022-11-25T05:30:35.050Z,3.30
2022-11-25T05:33:03.333Z,3.15
2022-11-25T05:35:32.670Z,3.10
2022-11-25T05:38:01.500Z,3.17
2022-11-25T05:40:29.398Z,2.88
2022-11-25T05:43:03.901Z,3.38
2022-11-25T05:45:39.291Z,3.30
2022-11-25T05:48:09.264Z,4.00
2022-11-25T05:50:38.731Z,4.22
2022-11-25T05:53:18.111Z,3.95
2022-11-25T05:55:56.479Z,3.88
2022-11-25T05:58:51.169Z,4.25
2022-11-25T06:01:21.185Z,3.60
2022-11-25T06:03:49.817Z,3.70
2022-11-25T06:06:18.959Z,3.50
2022-11-25T06:08:48.985Z,4.10
2022-11-25T06:11:18.378Z,3.75
2022-11-25T06:13:47.128Z,4.10
2022-11-25T06:16:19.329Z,3.83
2022-11-25T06:18:51.483Z,3.65
2022-11-25T06:21:20.381Z,3.22
2022-11-25T06:23:49.599Z,2.92
2022-11-25T06:26:22.559Z,3.25
2022-11-25T06:28:57.448Z,3.63
2022-11-25T06:31:27.095Z,3.53
2022-11-25T06:34:06.490Z,3.80
2022-11-25T06:36:35.292Z,4.18
2022-11-25T06:39:03.258Z,4.43
2022-11-25T06:41:31.054Z,4.55
2022-11-25T06:43:59.048Z,4.03
2022-11-25T06:46:27.991Z,4.72
2022-11-25T06:48:55.822Z,4.82
2022-11-25T06:51:24.821Z,4.63
2022-11-25T06:53:53.750Z,5.10
2022-11-25T06:56:25.744Z,5.20
2022-11-25T06:58:56.318Z,4.93
2022-11-25T07:01:30.216Z,4.70
2022-11-25T07:04:06.153Z,5.05
2022-11-25T07:06:34.899Z,5.20
2022-11-25T07:09:04.730Z,4.70
2022-11-25T07:11:37.810Z,4.82
2022-11-25T07:14:12.647Z,5.30
2022-11-25T07:16:44.003Z,4.35
2022-11-25T07:19:17.061Z,4.70
2022-11-25T07:21:46.341Z,5.82
2022-11-25T07:24:17.905Z,8.80
2022-11-25T07:26:46.190Z,8.90
2022-11-25T07:29:50.367Z,7.18
2022-11-25T07:32:10.248Z,6.50
2022-11-25T07:34:38.891Z,6.95
2022-11-25T07:37:07.522Z,5.55
2022-11-25T07:39:35.822Z,4.80
2022-11-25T07:42:05.545Z,4.95
2022-11-25T07:44:35.978Z,4.00
2022-11-25T07:47:29.741Z,3.88
2022-11-25T07:49:58.188Z,4.30
2022-11-25T07:52:27.116Z,4.97
2022-11-25T07:54:55.701Z,4.53
2022-11-25T07:57:23.946Z,4.88
2022-11-25T07:59:53.177Z,4.55
2022-11-25T08:02:21.215Z,4.75
2022-11-25T08:04:49.860Z,4.07
2022-11-25T08:07:19.195Z,4.30
2022-11-25T08:09:47.563Z,4.60
2022-11-25T08:12:15.533Z,4.82
2022-11-25T08:14:43.479Z,5.75
2022-11-25T08:17:12.118Z,5.97
2022-11-25T08:19:40.722Z,6.35
2022-11-25T08:22:08.741Z,6.82
2022-11-25T08:24:37.232Z,7.05
2022-11-25T08:27:05.250Z,6.03
2022-11-25T08:29:33.907Z,5.63
2022-11-25T08:32:03.544Z,5.10
2022-11-25T08:34:34.142Z,4.30
2022-11-25T08:37:05.404Z,4.60
2022-11-25T08:39:51.945Z,4.07
2022-11-25T08:42:20.630Z,4.80
2022-11-25T08:44:56.538Z,4.72
2022-11-25T08:47:25.188Z,5.18
2022-11-25T08:49:54.885Z,4.70
2022-11-25T08:52:23.473Z,5.03
2022-11-25T08:54:52.112Z,5.28
2022-11-25T08:57:20.404Z,4.57
2022-11-25T08:59:49.655Z,5.10
2022-11-25T09:02:19.752Z,4.65
2022-11-25T09:04:48.055Z,4.78
2022-11-25T09:07:17.253Z,4.32
2022-11-25T09:09:45.203Z,4.47
2022-11-25T09:12:13.363Z,3.92
2022-11-25T09:14:41.420Z,4.53
2022-11-25T09:17:11.698Z,5.90
2022-11-25T09:19:40.538Z,5.40
2022-11-25T09:22:08.650Z,4.53
2022-11-25T09:24:36.941Z,4.93
2022-11-25T09:27:05.277Z,4.47
2022-11-25T09:29:33.447Z,4.70
2022-11-25T09:32:01.410Z,5.10
2022-11-25T09:34:29.992Z,4.00
2022-11-25T09:36:57.803Z,3.35
2022-11-25T09:39:29.822Z,3.25
2022-11-25T09:42:47.377Z,3.05
2022-11-25T09:45:46.869Z,2.40
2022-11-25T09:48:47.357Z,2.88
2022-11-25T09:51:23.381Z,2.50
2022-11-25T09:54:03.249Z,2.45
2022-11-25T09:56:46.458Z,3.50
2022-11-25T09:59:33.913Z,3.28
2022-11-25T10:02:13.384Z,3.03
2022-11-25T10:04:54.966Z,3.35
2022-11-25T10:10:05.741Z,2.60
2022-11-25T10:12:43.730Z,2.83
2022-11-25T10:15:41.079Z,3.20
2022-11-25T10:18:48.275Z,3.30
2022-11-25T10:21:18.745Z,2.90
2022-11-25T10:23:46.712Z,3.25
2022-11-25T10:26:21.002Z,2.83
2022-11-25T10:29:18.369Z,3.53
2022-11-25T10:32:33.459Z,3.15
2022-11-25T10:35:20.370Z,3.40
2022-11-25T10:37:55.498Z,2.88
2022-11-25T10:40:24.208Z,2.72
2022-11-25T10:42:53.310Z,2.58
2022-11-25T10:45:37.599Z,2.50
2022-11-25T10:48:49.055Z,2.95
2022-11-25T10:51:51.126Z,1.80
2022-11-25T10:54:27.923Z,2.60
2022-11-25T10:57:00.388Z,2.25
2022-11-25T10:59:34.398Z,2.97
2022-11-25T11:02:19.983Z,2.42
2022-11-25T11:05:08.184Z,2.40
2022-11-25T11:07:45.357Z,2.38
2022-11-25T11:10:20.778Z,2.38
2022-11-25T11:13:01.620Z,2.60
2022-11-25T11:15:42.125Z,2.22
2022-11-25T11:18:40.513Z,2.88
2022-11-25T11:21:41.735Z,2.58
2022-11-25T11:24:32.999Z,3.10
2022-11-25T11:27:14.992Z,3.35
2022-11-25T11:29:43.746Z,2.90
2022-11-25T11:32:25.722Z,3.03
2022-11-25T11:35:06.562Z,3.33
2022-11-25T11:37:57.368Z,3.80
2022-11-25T11:40:46.840Z,3.45
2022-11-25T11:43:43.314Z,3.55
2022-11-25T11:46:37.917Z,3.92
2022-11-25T11:49:27.602Z,3.63
2022-11-25T11:52:53.654Z,3.78
2022-11-25T11:56:18.800Z,3.30
2022-11-25T11:59:00.699Z,3.42
2022-11-25T12:01:56.594Z,4.20
2022-11-25T12:04:36.218Z,3.90
2022-11-25T12:07:35.963Z,3.50
2022-11-25T12:10:16.053Z,4.78
2022-11-25T12:13:38.110Z,3.58
2022-11-25T12:16:11.247Z,3.30
2022-11-25T12:18:56.086Z,3.40
2022-11-25T12:21:42.566Z,4.65
2022-11-25T12:24:16.612Z,6.38
2022-11-25T12:26:54.945Z,4.30
2022-11-25T12:29:43.690Z,3.97
2022-11-25T12:32:38.691Z,3.17
2022-11-25T12:35:31.575Z,3.72
2022-11-25T12:38:04.752Z,4.80
2022-11-25T12:40:53.089Z,4.40
2022-11-25T12:43:50.935Z,3.83
2022-11-25T12:46:53.248Z,4.10
2022-11-25T12:49:30.043Z,3.70
2022-11-25T12:52:22.483Z,3.63
2022-11-25T12:55:05.887Z,5.95
2022-11-25T12:57:59.002Z,5.30
2022-11-25T13:01:09.172Z,4.60
2022-11-25T13:04:22.700Z,3.72
2022-11-25T13:07:40.961Z,4.93
2022-11-25T13:10:22.085Z,3.60
2022-11-25T13:13:42.915Z,3.95
2022-11-25T13:16:12.709Z,3.60
2022-11-25T13:18:48.345Z,3.92
2022-11-25T13:21:19.381Z,3.72
2022-11-25T13:23:53.383Z,3.35
2022-11-25T13:26:49.399Z,3.13
2022-11-25T13:29:17.923Z,3.30
2022-11-25T13:32:29.240Z,4.05
2022-11-25T13:35:21.869Z,3.90
2022-11-25T13:37:51.115Z,3.65
2022-11-25T13:40:30.844Z,3.85
2022-11-25T13:43:03.255Z,3.60
2022-11-25T13:45:43.759Z,3.03
2022-11-25T13:48:32.445Z,3.78
2022-11-25T13:51:23.542Z,3.75
2022-11-25T13:54:04.359Z,3.50
2022-11-25T13:56:37.015Z,3.40
2022-11-25T13:59:11.539Z,3.22
2022-11-25T14:01:52.126Z,3.05
2022-11-25T14:04:55.209Z,3.17
2022-11-25T14:07:29.449Z,2.90
2022-11-25T14:10:34.569Z,3.03
2022-11-25T14:13:46.487Z,3.30
2022-11-25T14:16:37.875Z,3.40
2022-11-25T14:19:52.772Z,3.58
2022-11-25T14:22:46.165Z,3.95
2022-11-25T14:25:22.870Z,3.25
2022-11-25T14:28:33.999Z,3.08
2022-11-25T14:31:13.468Z,3.40
2022-11-25T14:34:29.749Z,3.60
2022-11-25T14:37:08.680Z,3.75
2022-11-25T14:39:55.829Z,3.50
2022-11-25T14:42:27.386Z,3.40
2022-11-25T14:47:35.986Z,3.35
2022-11-25T14:53:12.575Z,3.13
2022-11-25T14:55:40.582Z,5.00
2022-11-25T14:58:13.673Z,3.40
2022-11-25T15:00:59.587Z,3.00
2022-11-25T15:03:28.118Z,3.30
2022-11-25T15:06:05.044Z,3.25
2022-11-25T15:08:55.318Z,3.30
2022-11-25T15:11:35.212Z,3.67
2022-11-25T15:14:06.380Z,3.60
2022-11-25T15:16:41.827Z,3.40
2022-11-25T15:19:28.060Z,3.13
2022-11-25T15:22:23.608Z,2.97
2022-11-25T15:24:56.346Z,3.45
2022-11-25T15:27:28.502Z,3.33
2022-11-25T15:29:58.216Z,3.08
2022-11-25T15:32:30.853Z,3.25
2022-11-25T15:35:02.222Z,4.13
2022-11-25T15:37:31.118Z,3.50
2022-11-25T15:40:33.792Z,3.25
2022-11-25T15:43:06.366Z,3.60
2022-11-25T15:45:46.406Z,4.15
2022-11-25T15:48:30.280Z,3.90
2022-11-25T15:51:14.645Z,4.13
2022-11-25T15:53:47.016Z,7.07
2022-11-25T15:56:26.092Z,7.05
2022-11-25T15:58:58.746Z,6.18
2022-11-25T16:01:31.155Z,5.60
2022-11-25T16:04:21.799Z,5.68
2022-11-25T16:06:56.293Z,4.45
2022-11-25T16:09:28.032Z,5.80
2022-11-25T16:12:07.356Z,10.00
2022-11-25T16:14:39.554Z,10.25
2022-11-25T16:17:12.619Z,8.27
2022-11-25T16:19:48.945Z,8.38
2022-11-25T16:22:20.726Z,8.65
2022-11-25T16:24:58.700Z,9.05
2022-11-25T16:27:31.639Z,7.38
2022-11-25T16:30:06.139Z,6.57
2022-11-25T16:32:40.466Z,6.38
2022-11-25T16:35:22.462Z,6.40
2022-11-25T16:37:51.125Z,6.80
2022-11-25T16:40:19.831Z,7.20
2022-11-25T16:42:51.727Z,7.93
2022-11-25T16:45:29.718Z,10.20
2022-11-25T16:47:57.843Z,12.20
2022-11-25T16:50:27.480Z,12.57
2022-11-25T16:55:25.747Z,12.10
2022-11-25T16:57:54.380Z,10.63
2022-11-25T17:00:23.779Z,9.00
2022-11-25T17:02:53.643Z,8.40
2022-11-25T17:05:27.107Z,7.00
2022-11-25T17:07:56.077Z,5.65
2022-11-25T17:10:24.105Z,5.35
2022-11-25T17:12:52.437Z,4.97
2022-11-25T17:15:31.116Z,5.60
2022-11-25T17:18:00.334Z,6.15
2022-11-25T17:20:28.922Z,5.93
2022-11-25T17:22:58.543Z,5.72
2022-11-25T17:25:32.392Z,7.47
2022-11-25T17:28:06.277Z,9.80
2022-11-25T17:30:42.984Z,13.60
2022-11-25T17:33:19.470Z,12.18
2022-11-25T17:35:48.042Z,9.90
2022-11-25T17:38:21.775Z,8.90
2022-11-25T17:41:20.195Z,7.60
2022-11-25T17:44:34.767Z,8.77
2022-11-25T17:47:23.604Z,7.03
2022-11-25T17:50:25.687Z,6.78
2022-11-25T17:53:14.144Z,6.57
2022-11-25T17:56:30.164Z,6.03
2022-11-25T17:59:25.619Z,5.25
2022-11-25T18:02:22.262Z,5.53
2022-11-25T18:05:23.830Z,4.90
2022-11-25T18:08:12.854Z,5.00
2022-11-25T18:11:05.762Z,5.43
2022-11-25T18:13:40.591Z,5.80
2022-11-25T18:16:09.239Z,6.10
2022-11-25T18:18:38.308Z,6.30
2022-11-25T18:21:06.744Z,6.13
2022-11-25T18:23:35.123Z,5.13
2022-11-25T18:26:03.732Z,5.47
2022-11-25T18:28:33.645Z,6.00
2022-11-25T18:31:05.827Z,7.32
2022-11-25T18:33:35.234Z,7.60
2022-11-25T18:36:03.589Z,7.13
2022-11-25T18:38:33.419Z,7.68
2022-11-25T18:41:01.811Z,8.23
2022-11-25T18:43:30.123Z,9.00
2022-11-25T18:45:58.182Z,8.32
2022-11-25T18:48:27.036Z,9.40
2022-11-25T18:50:57.125Z,9.75
2022-11-25T18:53:26.424Z,9.32
2022-11-25T18:55:58.127Z,9.48
2022-11-25T18:58:27.638Z,8.18
2022-11-25T19:01:04.247Z,7.40
2022-11-25T19:03:33.356Z,7.28
2022-11-25T19:06:03.431Z,6.95
2022-11-25T19:08:32.270Z,6.93
2022-11-25T19:11:00.725Z,6.63
2022-11-25T19:13:35.531Z,6.68
2022-11-25T19:16:13.310Z,6.57
2022-11-25T19:18:43.982Z,6.65
2022-11-25T19:21:19.249Z,7.07
2022-11-25T19:23:50.842Z,8.00
2022-11-25T19:26:28.136Z,11.32
2022-11-25T19:29:11.841Z,15.55
2022-11-25T19:31:39.924Z,16.58
2022-11-25T19:34:19.707Z,16.50
2022-11-25T19:36:48.948Z,15.25
2022-11-25T19:39:18.938Z,14.45
2022-11-25T19:41:47.541Z,10.93
2022-11-25T19:44:16.465Z,8.18
2022-11-25T19:47:14.340Z,6.78
2022-11-25T19:49:39.529Z,6.45
2022-11-25T19:52:20.115Z,6.18
2022-11-25T19:54:48.646Z,6.57
2022-11-25T19:57:23.766Z,6.10
2022-11-25T19:59:54.342Z,6.00
2022-11-25T20:02:26.552Z,7.40
2022-11-25T20:04:56.787Z,10.57
2022-11-25T20:07:28.140Z,10.45
2022-11-25T20:14:58.516Z,7.05
2022-11-25T20:17:34.762Z,6.75
2022-11-25T20:20:25.350Z,7.00
2022-11-25T20:23:43.417Z,6.60
2022-11-25T20:26:37.100Z,5.82
2022-11-25T20:29:17.517Z,5.28
2022-11-25T20:31:49.673Z,5.63
2022-11-25T20:34:18.223Z,5.63
2022-11-25T20:36:46.846Z,5.38
2022-11-25T20:39:20.793Z,5.45
2022-11-25T20:41:52.002Z,5.63
2022-11-25T20:44:21.763Z,5.43
2022-11-25T20:46:50.613Z,5.60
2022-11-25T20:49:29.576Z,6.18
2022-11-25T20:51:59.316Z,6.55
2022-11-25T20:54:27.818Z,6.40
2022-11-25T20:56:57.707Z,6.25
2022-11-25T20:59:26.457Z,6.38
2022-11-25T21:01:55.569Z,5.47
2022-11-25T21:04:24.194Z,5.45
2022-11-25T21:06:54.611Z,5.70
2022-11-25T21:09:35.026Z,5.60
2022-11-25T21:12:05.539Z,5.20
2022-11-25T21:14:33.752Z,5.20
2022-11-25T21:17:01.992Z,4.82
2022-11-25T21:19:31.260Z,4.63
2022-11-25T21:22:03.183Z,4.50
2022-11-25T21:24:33.335Z,4.55
2022-11-25T21:27:13.955Z,4.20
2022-11-25T21:29:44.111Z,3.40
2022-11-25T21:32:26.563Z,4.40
2022-11-25T21:34:55.999Z,4.60
2022-11-25T21:37:35.934Z,5.05
2022-11-25T21:40:06.915Z,4.95
2022-11-25T21:42:35.612Z,4.85
2022-11-25T21:45:06.395Z,4.50
2022-11-25T21:47:35.323Z,4.78
2022-11-25T21:50:16.862Z,5.00
2022-11-25T21:52:46.123Z,4.53
2022-11-25T21:55:18.224Z,4.80
2022-11-25T21:57:46.877Z,4.55
2022-11-25T22:00:24.869Z,4.70
2022-11-25T22:02:54.844Z,4.72
2022-11-25T22:05:26.111Z,4.72
2022-11-25T22:07:55.851Z,5.28
2022-11-25T22:10:25.514Z,5.60
2022-11-25T22:12:55.201Z,4.60
2022-11-25T22:15:24.127Z,5.03
2022-11-25T22:17:56.526Z,4.93
2022-11-25T22:20:30.706Z,4.78
2022-11-25T22:22:59.190Z,5.40
2022-11-25T22:25:31.451Z,4.88
2022-11-25T22:27:59.416Z,4.80
2022-11-25T22:30:28.337Z,5.20
2022-11-25T22:33:03.602Z,5.03
2022-11-25T22:35:32.942Z,4.78
2022-11-25T22:38:00.954Z,5.32
2022-11-25T22:40:28.822Z,4.97
2022-11-25T22:42:57.137Z,5.57
2022-11-25T22:45:34.226Z,4.90
2022-11-25T22:48:05.913Z,5.32
2022-11-25T22:53:02.583Z,4.43
2022-11-25T22:55:33.492Z,4.85
2022-11-25T22:58:04.591Z,3.20
2022-11-25T23:00:45.751Z,4.75
2022-11-25T23:03:30.079Z,4.85
2022-11-25T23:05:58.780Z,4.20
2022-11-25T23:08:31.984Z,4.75
2022-11-25T23:11:00.754Z,4.32
2022-11-25T23:13:30.639Z,4.40
2022-11-25T23:16:05.049Z,4.47
2022-11-25T23:18:41.126Z,4.38
2022-11-25T23:21:22.980Z,4.60
2022-11-25T23:23:51.912Z,4.80
2022-11-25T23:26:20.553Z,4.55
2022-11-25T23:28:49.921Z,4.55
2022-11-25T23:31:18.056Z,4.47
2022-11-25T23:33:51.728Z,4.57
2022-11-25T23:36:31.440Z,4.70
2022-11-25T23:39:03.536Z,4.45
2022-11-25T23:41:34.164Z,3.97
2022-11-25T23:44:18.052Z,3.58
2022-11-25T23:46:48.987Z,5.05
2022-11-25T23:49:35.552Z,5.57
2022-11-25T23:52:08.246Z,6.50
2022-11-25T23:54:44.388Z,5.75
2022-11-25T23:57:12.247Z,5.80
2022-11-25T23:59:40.298Z,5.00
